Pilot Station, Alaska
Current Conditions -  °F | °C
As of 5:56 PM on Monday 22 Dec 2014 (Local Time) from PASM Reporting Station
Clear Clear  
Wind Chill: -6°   Ceiling: Unl
Heat Index:   Visibility: 10mi
Dew Point:   Wind: 8mph
Humidity: 79%   Direction: 20°NNE
Pressure: 30.01"   Gusts: NA
Location:  61.94°N, 162.88°W
Report Text: PASM 230256Z AUTO 02007KT 10SM CLR M14/M17 A3001 RMK AO1 52007
Loading
Personal Weather Stations






























Interactive Weather Map New forecast layout! Learn more

10-Day Weather Forecast

Advertisements
Track Severe Weather on mobile